sensor_id;sensor_type;location;lat;lon;timestamp;temperature;humidity
569;DHT22;269;48.884;9.192;2022-07-15T00:00:58;20.70;64.80
569;DHT22;269;48.884;9.192;2022-07-15T00:03:25;20.70;65.10
569;DHT22;269;48.884;9.192;2022-07-15T00:05:52;20.70;66.20
569;DHT22;269;48.884;9.192;2022-07-15T00:08:19;20.60;65.70
569;DHT22;269;48.884;9.192;2022-07-15T00:10:46;20.60;66.00
569;DHT22;269;48.884;9.192;2022-07-15T00:13:15;20.70;66.30
569;DHT22;269;48.884;9.192;2022-07-15T00:15:42;20.50;66.80
569;DHT22;269;48.884;9.192;2022-07-15T00:18:09;20.50;67.20
569;DHT22;269;48.884;9.192;2022-07-15T00:20:37;20.40;67.30
569;DHT22;269;48.884;9.192;2022-07-15T00:23:06;20.40;67.60
569;DHT22;269;48.884;9.192;2022-07-15T00:25:34;20.30;68.00
569;DHT22;269;48.884;9.192;2022-07-15T00:28:03;20.30;68.10
569;DHT22;269;48.884;9.192;2022-07-15T00:30:34;20.30;68.50
569;DHT22;269;48.884;9.192;2022-07-15T00:33:02;20.20;68.70
569;DHT22;269;48.884;9.192;2022-07-15T00:35:30;20.20;68.70
569;DHT22;269;48.884;9.192;2022-07-15T00:37:58;20.10;68.80
569;DHT22;269;48.884;9.192;2022-07-15T00:40:25;20.10;69.10
569;DHT22;269;48.884;9.192;2022-07-15T00:42:54;20.10;69.20
569;DHT22;269;48.884;9.192;2022-07-15T00:45:23;20.10;69.30
569;DHT22;269;48.884;9.192;2022-07-15T00:47:53;20.10;69.30
569;DHT22;269;48.884;9.192;2022-07-15T00:50:26;20.10;69.30
569;DHT22;269;48.884;9.192;2022-07-15T00:52:54;20.00;69.20
569;DHT22;269;48.884;9.192;2022-07-15T00:55:23;20.00;69.50
569;DHT22;269;48.884;9.192;2022-07-15T00:57:55;19.90;69.70
569;DHT22;269;48.884;9.192;2022-07-15T01:00:23;19.90;69.80
569;DHT22;269;48.884;9.192;2022-07-15T01:02:54;19.80;70.20
569;DHT22;269;48.884;9.192;2022-07-15T01:05:21;19.80;70.30
569;DHT22;269;48.884;9.192;2022-07-15T01:07:49;19.80;70.50
569;DHT22;269;48.884;9.192;2022-07-15T01:10:17;19.80;70.30
569;DHT22;269;48.884;9.192;2022-07-15T01:12:45;19.70;70.20
569;DHT22;269;48.884;9.192;2022-07-15T01:15:14;19.70;70.40
569;DHT22;269;48.884;9.192;2022-07-15T01:17:41;19.60;70.50
569;DHT22;269;48.884;9.192;2022-07-15T01:20:10;19.70;71.00
569;DHT22;269;48.884;9.192;2022-07-15T01:22:41;19.50;71.10
569;DHT22;269;48.884;9.192;2022-07-15T01:25:08;19.50;71.00
569;DHT22;269;48.884;9.192;2022-07-15T01:27:35;19.40;71.70
569;DHT22;269;48.884;9.192;2022-07-15T01:30:04;19.40;72.00
569;DHT22;269;48.884;9.192;2022-07-15T01:32:31;19.40;72.30
569;DHT22;269;48.884;9.192;2022-07-15T01:34:58;19.30;72.30
569;DHT22;269;48.884;9.192;2022-07-15T01:37:26;19.30;72.50
569;DHT22;269;48.884;9.192;2022-07-15T01:39:54;19.20;72.70
569;DHT22;269;48.884;9.192;2022-07-15T01:42:21;19.20;72.70
569;DHT22;269;48.884;9.192;2022-07-15T01:44:49;19.20;72.80
569;DHT22;269;48.884;9.192;2022-07-15T01:47:16;19.10;73.00
569;DHT22;269;48.884;9.192;2022-07-15T01:49:43;19.10;73.70
569;DHT22;269;48.884;9.192;2022-07-15T01:52:11;19.00;73.40
569;DHT22;269;48.884;9.192;2022-07-15T01:54:38;19.00;73.60
569;DHT22;269;48.884;9.192;2022-07-15T01:57:07;19.00;73.70
569;DHT22;269;48.884;9.192;2022-07-15T01:59:34;18.90;74.00
569;DHT22;269;48.884;9.192;2022-07-15T02:02:01;18.90;73.30
569;DHT22;269;48.884;9.192;2022-07-15T02:04:28;18.90;73.90
569;DHT22;269;48.884;9.192;2022-07-15T02:06:55;18.90;74.80
569;DHT22;269;48.884;9.192;2022-07-15T02:09:22;18.80;74.80
569;DHT22;269;48.884;9.192;2022-07-15T02:11:49;18.80;75.20
569;DHT22;269;48.884;9.192;2022-07-15T02:14:18;18.70;75.70
569;DHT22;269;48.884;9.192;2022-07-15T02:16:45;18.70;76.20
569;DHT22;269;48.884;9.192;2022-07-15T02:19:12;18.60;75.60
569;DHT22;269;48.884;9.192;2022-07-15T02:21:39;18.60;76.70
569;DHT22;269;48.884;9.192;2022-07-15T02:24:06;18.70;77.20
569;DHT22;269;48.884;9.192;2022-07-15T02:26:33;18.50;76.70
569;DHT22;269;48.884;9.192;2022-07-15T02:29:00;18.40;76.50
569;DHT22;269;48.884;9.192;2022-07-15T02:31:29;18.40;76.40
569;DHT22;269;48.884;9.192;2022-07-15T02:33:56;18.40;76.90
569;DHT22;269;48.884;9.192;2022-07-15T02:36:23;18.30;77.60
569;DHT22;269;48.884;9.192;2022-07-15T02:38:50;18.30;77.80
569;DHT22;269;48.884;9.192;2022-07-15T02:41:17;18.30;78.60
569;DHT22;269;48.884;9.192;2022-07-15T02:43:44;18.30;79.00
569;DHT22;269;48.884;9.192;2022-07-15T02:46:11;18.20;77.40
569;DHT22;269;48.884;9.192;2022-07-15T02:48:40;18.20;77.80
569;DHT22;269;48.884;9.192;2022-07-15T02:51:08;18.20;76.60
569;DHT22;269;48.884;9.192;2022-07-15T02:53:35;18.10;75.90
569;DHT22;269;48.884;9.192;2022-07-15T02:56:03;18.10;75.40
569;DHT22;269;48.884;9.192;2022-07-15T02:58:31;18.10;75.50
569;DHT22;269;48.884;9.192;2022-07-15T03:00:58;18.10;77.20
569;DHT22;269;48.884;9.192;2022-07-15T03:03:26;18.10;77.50
569;DHT22;269;48.884;9.192;2022-07-15T03:05:57;18.10;77.40
569;DHT22;269;48.884;9.192;2022-07-15T03:08:24;18.10;78.20
569;DHT22;269;48.884;9.192;2022-07-15T03:10:52;18.10;78.50
569;DHT22;269;48.884;9.192;2022-07-15T03:13:19;18.10;78.60
569;DHT22;269;48.884;9.192;2022-07-15T03:15:46;18.00;78.50
569;DHT22;269;48.884;9.192;2022-07-15T03:18:13;18.00;78.80
569;DHT22;269;48.884;9.192;2022-07-15T03:20:40;18.00;79.10
569;DHT22;269;48.884;9.192;2022-07-15T03:23:09;18.00;79.60
569;DHT22;269;48.884;9.192;2022-07-15T03:25:37;17.90;79.70
569;DHT22;269;48.884;9.192;2022-07-15T03:28:04;18.00;79.80
569;DHT22;269;48.884;9.192;2022-07-15T03:30:31;17.90;79.80
569;DHT22;269;48.884;9.192;2022-07-15T03:32:58;17.90;80.60
569;DHT22;269;48.884;9.192;2022-07-15T03:35:25;17.90;81.20
569;DHT22;269;48.884;9.192;2022-07-15T03:37:52;17.90;81.50
569;DHT22;269;48.884;9.192;2022-07-15T03:40:20;17.90;81.90
569;DHT22;269;48.884;9.192;2022-07-15T03:42:48;17.90;82.00
569;DHT22;269;48.884;9.192;2022-07-15T03:45:14;18.00;82.10
569;DHT22;269;48.884;9.192;2022-07-15T03:47:41;18.00;82.90
569;DHT22;269;48.884;9.192;2022-07-15T03:50:09;18.00;82.90
569;DHT22;269;48.884;9.192;2022-07-15T03:52:36;18.00;83.10
569;DHT22;269;48.884;9.192;2022-07-15T03:55:04;18.10;83.20
569;DHT22;269;48.884;9.192;2022-07-15T03:57:33;18.10;83.50
569;DHT22;269;48.884;9.192;2022-07-15T04:00:00;18.10;84.20
569;DHT22;269;48.884;9.192;2022-07-15T04:02:28;18.10;84.90
569;DHT22;269;48.884;9.192;2022-07-15T04:04:55;18.10;84.80
569;DHT22;269;48.884;9.192;2022-07-15T04:07:22;18.20;84.90
569;DHT22;269;48.884;9.192;2022-07-15T04:09:49;18.20;85.00
569;DHT22;269;48.884;9.192;2022-07-15T04:12:16;18.20;85.30
569;DHT22;269;48.884;9.192;2022-07-15T04:14:44;18.30;85.70
569;DHT22;269;48.884;9.192;2022-07-15T04:17:11;18.30;85.90
569;DHT22;269;48.884;9.192;2022-07-15T04:19:39;18.30;85.90
569;DHT22;269;48.884;9.192;2022-07-15T04:22:06;18.40;85.80
569;DHT22;269;48.884;9.192;2022-07-15T04:24:33;18.40;85.50
569;DHT22;269;48.884;9.192;2022-07-15T04:27:00;18.50;85.60
569;DHT22;269;48.884;9.192;2022-07-15T04:29:27;18.50;85.50
569;DHT22;269;48.884;9.192;2022-07-15T04:31:56;18.50;85.30
569;DHT22;269;48.884;9.192;2022-07-15T04:34:23;18.60;85.40
569;DHT22;269;48.884;9.192;2022-07-15T04:36:50;18.60;85.20
569;DHT22;269;48.884;9.192;2022-07-15T04:39:17;18.70;85.20
569;DHT22;269;48.884;9.192;2022-07-15T04:41:44;18.70;85.30
569;DHT22;269;48.884;9.192;2022-07-15T04:44:11;18.70;85.10
569;DHT22;269;48.884;9.192;2022-07-15T04:46:38;18.70;85.60
569;DHT22;269;48.884;9.192;2022-07-15T04:49:07;18.80;86.30
569;DHT22;269;48.884;9.192;2022-07-15T04:51:51;18.70;86.70
569;DHT22;269;48.884;9.192;2022-07-15T04:54:18;18.60;87.40
569;DHT22;269;48.884;9.192;2022-07-15T04:56:45;18.40;88.50
569;DHT22;269;48.884;9.192;2022-07-15T04:59:12;18.30;89.40
569;DHT22;269;48.884;9.192;2022-07-15T05:01:40;18.10;89.90
569;DHT22;269;48.884;9.192;2022-07-15T05:04:08;18.00;90.60
569;DHT22;269;48.884;9.192;2022-07-15T05:06:36;18.20;91.10
569;DHT22;269;48.884;9.192;2022-07-15T05:09:03;18.10;91.40
569;DHT22;269;48.884;9.192;2022-07-15T05:11:30;18.20;91.90
569;DHT22;269;48.884;9.192;2022-07-15T05:13:57;18.20;91.80
569;DHT22;269;48.884;9.192;2022-07-15T05:16:24;18.30;90.40
569;DHT22;269;48.884;9.192;2022-07-15T05:18:51;18.40;90.50
569;DHT22;269;48.884;9.192;2022-07-15T05:21:19;18.60;90.30
569;DHT22;269;48.884;9.192;2022-07-15T05:23:47;18.70;89.50
569;DHT22;269;48.884;9.192;2022-07-15T05:26:14;18.80;89.20
569;DHT22;269;48.884;9.192;2022-07-15T05:28:41;18.90;88.70
569;DHT22;269;48.884;9.192;2022-07-15T05:31:08;19.00;89.10
569;DHT22;269;48.884;9.192;2022-07-15T05:33:35;19.20;88.60
569;DHT22;269;48.884;9.192;2022-07-15T05:36:03;19.30;88.30
569;DHT22;269;48.884;9.192;2022-07-15T05:38:31;19.40;88.10
569;DHT22;269;48.884;9.192;2022-07-15T05:40:58;19.50;88.20
569;DHT22;269;48.884;9.192;2022-07-15T05:43:25;19.60;87.40
569;DHT22;269;48.884;9.192;2022-07-15T05:45:52;19.80;86.90
569;DHT22;269;48.884;9.192;2022-07-15T05:48:19;19.80;87.00
569;DHT22;269;48.884;9.192;2022-07-15T05:50:46;19.90;86.30
569;DHT22;269;48.884;9.192;2022-07-15T05:53:13;20.00;85.60
569;DHT22;269;48.884;9.192;2022-07-15T05:55:42;20.00;84.60
569;DHT22;269;48.884;9.192;2022-07-15T05:58:09;20.00;84.80
569;DHT22;269;48.884;9.192;2022-07-15T06:00:37;20.00;85.10
569;DHT22;269;48.884;9.192;2022-07-15T06:03:04;20.10;85.30
569;DHT22;269;48.884;9.192;2022-07-15T06:05:32;20.30;84.60
569;DHT22;269;48.884;9.192;2022-07-15T06:08:00;20.30;84.20
569;DHT22;269;48.884;9.192;2022-07-15T06:10:27;20.40;83.10
569;DHT22;269;48.884;9.192;2022-07-15T06:12:55;20.30;83.70
569;DHT22;269;48.884;9.192;2022-07-15T06:15:23;20.40;84.10
569;DHT22;269;48.884;9.192;2022-07-15T06:17:50;20.50;83.50
569;DHT22;269;48.884;9.192;2022-07-15T06:20:17;20.50;83.40
569;DHT22;269;48.884;9.192;2022-07-15T06:22:44;20.60;81.20
569;DHT22;269;48.884;9.192;2022-07-15T06:25:12;20.70;80.60
569;DHT22;269;48.884;9.192;2022-07-15T06:27:40;20.80;79.50
569;DHT22;269;48.884;9.192;2022-07-15T06:30:10;20.90;78.50
569;DHT22;269;48.884;9.192;2022-07-15T15:05:05;41.90;31.10
569;DHT22;269;48.884;9.192;2022-07-15T15:07:33;41.00;32.10
569;DHT22;269;48.884;9.192;2022-07-15T15:10:00;41.40;32.60
569;DHT22;269;48.884;9.192;2022-07-15T15:12:27;41.20;32.00
569;DHT22;269;48.884;9.192;2022-07-15T15:14:54;41.30;31.80
569;DHT22;269;48.884;9.192;2022-07-15T15:17:21;41.50;31.60
569;DHT22;269;48.884;9.192;2022-07-15T15:19:48;41.50;32.10
569;DHT22;269;48.884;9.192;2022-07-15T15:22:17;41.40;32.60
569;DHT22;269;48.884;9.192;2022-07-15T15:24:44;41.90;31.70
569;DHT22;269;48.884;9.192;2022-07-15T15:27:11;41.50;31.50
569;DHT22;269;48.884;9.192;2022-07-15T15:29:38;42.20;31.40
569;DHT22;269;48.884;9.192;2022-07-15T15:32:06;42.50;30.80
569;DHT22;269;48.884;9.192;2022-07-15T15:34:39;42.70;31.10
569;DHT22;269;48.884;9.192;2022-07-15T15:37:06;43.20;30.90
569;DHT22;269;48.884;9.192;2022-07-15T15:39:35;43.60;31.60
569;DHT22;269;48.884;9.192;2022-07-15T15:42:04;43.70;30.40
569;DHT22;269;48.884;9.192;2022-07-15T15:44:31;43.70;30.00
569;DHT22;269;48.884;9.192;2022-07-15T15:46:58;43.00;30.10
569;DHT22;269;48.884;9.192;2022-07-15T15:49:25;41.80;30.60
569;DHT22;269;48.884;9.192;2022-07-15T15:51:52;40.10;31.60
569;DHT22;269;48.884;9.192;2022-07-15T15:54:19;39.10;32.50
569;DHT22;269;48.884;9.192;2022-07-15T15:56:47;38.00;33.50
569;DHT22;269;48.884;9.192;2022-07-15T15:59:15;36.90;33.80
569;DHT22;269;48.884;9.192;2022-07-15T16:01:42;36.00;34.90
569;DHT22;269;48.884;9.192;2022-07-15T16:04:09;35.30;36.40
569;DHT22;269;48.884;9.192;2022-07-15T16:06:36;34.30;36.40
569;DHT22;269;48.884;9.192;2022-07-15T16:09:03;33.50;36.70
569;DHT22;269;48.884;9.192;2022-07-15T16:11:30;32.60;37.50
569;DHT22;269;48.884;9.192;2022-07-15T16:13:59;31.60;38.70
569;DHT22;269;48.884;9.192;2022-07-15T16:16:26;30.60;39.50
569;DHT22;269;48.884;9.192;2022-07-15T16:18:53;29.90;42.00
569;DHT22;269;48.884;9.192;2022-07-15T16:21:20;29.20;41.60
569;DHT22;269;48.884;9.192;2022-07-15T16:24:01;28.70;42.20
569;DHT22;269;48.884;9.192;2022-07-15T16:26:29;28.20;43.20
569;DHT22;269;48.884;9.192;2022-07-15T16:28:56;27.80;43.80
569;DHT22;269;48.884;9.192;2022-07-15T16:31:24;27.60;44.20
569;DHT22;269;48.884;9.192;2022-07-15T16:33:51;27.30;44.90
569;DHT22;269;48.884;9.192;2022-07-15T16:36:18;27.00;44.80
569;DHT22;269;48.884;9.192;2022-07-15T16:38:45;26.80;45.50
569;DHT22;269;48.884;9.192;2022-07-15T16:41:13;26.60;45.80
569;DHT22;269;48.884;9.192;2022-07-15T16:43:40;26.50;46.10
569;DHT22;269;48.884;9.192;2022-07-15T16:46:07;26.30;47.10
569;DHT22;269;48.884;9.192;2022-07-15T16:48:35;26.20;47.60
569;DHT22;269;48.884;9.192;2022-07-15T16:51:03;26.20;47.40
569;DHT22;269;48.884;9.192;2022-07-15T16:53:30;26.00;47.40
569;DHT22;269;48.884;9.192;2022-07-15T16:55:57;26.00;47.70
569;DHT22;269;48.884;9.192;2022-07-15T16:58:24;26.00;48.40
569;DHT22;269;48.884;9.192;2022-07-15T17:00:51;26.10;48.80
569;DHT22;269;48.884;9.192;2022-07-15T17:03:18;26.10;47.80
569;DHT22;269;48.884;9.192;2022-07-15T17:05:47;26.10;47.70
569;DHT22;269;48.884;9.192;2022-07-15T17:08:14;26.10;48.00
569;DHT22;269;48.884;9.192;2022-07-15T17:10:41;26.00;47.80
569;DHT22;269;48.884;9.192;2022-07-15T17:13:08;25.90;47.90
569;DHT22;269;48.884;9.192;2022-07-15T17:15:35;25.80;48.40
569;DHT22;269;48.884;9.192;2022-07-15T17:18:03;25.70;48.30
569;DHT22;269;48.884;9.192;2022-07-15T17:20:30;25.60;48.80
569;DHT22;269;48.884;9.192;2022-07-15T17:22:59;25.60;48.80
569;DHT22;269;48.884;9.192;2022-07-15T17:25:26;25.50;49.10
569;DHT22;269;48.884;9.192;2022-07-15T17:27:53;25.50;49.70
569;DHT22;269;48.884;9.192;2022-07-15T17:30:20;25.50;49.60
569;DHT22;269;48.884;9.192;2022-07-15T17:32:48;25.50;49.40
569;DHT22;269;48.884;9.192;2022-07-15T17:35:15;25.50;49.00
569;DHT22;269;48.884;9.192;2022-07-15T17:37:42;25.50;49.60
569;DHT22;269;48.884;9.192;2022-07-15T17:40:11;25.40;49.20
569;DHT22;269;48.884;9.192;2022-07-15T17:42:39;25.30;49.40
569;DHT22;269;48.884;9.192;2022-07-15T17:45:07;25.10;49.40
569;DHT22;269;48.884;9.192;2022-07-15T17:47:35;24.90;49.70
569;DHT22;269;48.884;9.192;2022-07-15T17:50:02;24.80;50.00
569;DHT22;269;48.884;9.192;2022-07-15T17:52:29;24.80;50.10
569;DHT22;269;48.884;9.192;2022-07-15T17:54:57;24.60;50.20
569;DHT22;269;48.884;9.192;2022-07-15T17:57:25;24.40;50.40
569;DHT22;269;48.884;9.192;2022-07-15T17:59:52;24.30;50.70
569;DHT22;269;48.884;9.192;2022-07-15T18:02:19;24.20;50.80
569;DHT22;269;48.884;9.192;2022-07-15T18:04:47;24.10;50.90
569;DHT22;269;48.884;9.192;2022-07-15T18:07:14;24.00;50.90
569;DHT22;269;48.884;9.192;2022-07-15T18:09:43;23.90;51.10
569;DHT22;269;48.884;9.192;2022-07-15T18:12:10;23.90;50.90
569;DHT22;269;48.884;9.192;2022-07-15T18:14:39;23.80;50.90
569;DHT22;269;48.884;9.192;2022-07-15T18:17:06;23.70;51.00
569;DHT22;269;48.884;9.192;2022-07-15T18:19:34;23.80;51.20
569;DHT22;269;48.884;9.192;2022-07-15T18:22:01;23.80;51.40
569;DHT22;269;48.884;9.192;2022-07-15T18:24:29;23.70;51.70
569;DHT22;269;48.884;9.192;2022-07-15T18:26:56;23.70;51.40
569;DHT22;269;48.884;9.192;2022-07-15T18:29:24;23.60;51.70
569;DHT22;269;48.884;9.192;2022-07-15T18:31:52;23.50;51.70
569;DHT22;269;48.884;9.192;2022-07-15T18:34:19;23.40;51.50
569;DHT22;269;48.884;9.192;2022-07-15T18:36:46;23.40;51.50
569;DHT22;269;48.884;9.192;2022-07-15T18:39:14;23.40;52.00
569;DHT22;269;48.884;9.192;2022-07-15T18:41:41;23.30;52.00
569;DHT22;269;48.884;9.192;2022-07-15T18:44:09;23.30;52.40
569;DHT22;269;48.884;9.192;2022-07-15T18:46:36;23.30;52.40
569;DHT22;269;48.884;9.192;2022-07-15T18:49:04;23.30;52.40
569;DHT22;269;48.884;9.192;2022-07-15T18:51:31;23.20;52.60
569;DHT22;269;48.884;9.192;2022-07-15T18:53:58;23.20;52.70
569;DHT22;269;48.884;9.192;2022-07-15T18:56:25;23.20;52.90
569;DHT22;269;48.884;9.192;2022-07-15T18:58:52;23.20;53.00
569;DHT22;269;48.884;9.192;2022-07-15T19:01:20;23.20;53.00
569;DHT22;269;48.884;9.192;2022-07-15T19:03:47;23.00;52.60
569;DHT22;269;48.884;9.192;2022-07-15T19:06:16;23.00;52.80
569;DHT22;269;48.884;9.192;2022-07-15T19:08:43;22.90;53.20
569;DHT22;269;48.884;9.192;2022-07-15T19:11:10;22.80;53.80
569;DHT22;269;48.884;9.192;2022-07-15T19:13:38;22.70;53.30
569;DHT22;269;48.884;9.192;2022-07-15T19:16:05;22.60;53.30
569;DHT22;269;48.884;9.192;2022-07-15T19:18:33;22.60;53.50
569;DHT22;269;48.884;9.192;2022-07-15T19:21:00;22.60;53.60
569;DHT22;269;48.884;9.192;2022-07-15T19:23:29;22.60;53.60
569;DHT22;269;48.884;9.192;2022-07-15T19:25:57;22.50;53.90
569;DHT22;269;48.884;9.192;2022-07-15T19:28:24;22.50;53.70
569;DHT22;269;48.884;9.192;2022-07-15T19:30:51;22.40;53.70
569;DHT22;269;48.884;9.192;2022-07-15T19:33:21;22.40;53.80
569;DHT22;269;48.884;9.192;2022-07-15T19:35:48;22.40;54.00
569;DHT22;269;48.884;9.192;2022-07-15T19:38:16;22.30;54.10
569;DHT22;269;48.884;9.192;2022-07-15T19:40:45;22.30;54.10
569;DHT22;269;48.884;9.192;2022-07-15T19:43:12;22.20;54.40
569;DHT22;269;48.884;9.192;2022-07-15T19:45:39;22.10;54.40
569;DHT22;269;48.884;9.192;2022-07-15T19:48:06;22.10;54.60
569;DHT22;269;48.884;9.192;2022-07-15T19:50:34;22.00;54.60
569;DHT22;269;48.884;9.192;2022-07-15T19:53:01;21.90;54.70
569;DHT22;269;48.884;9.192;2022-07-15T19:55:28;21.90;55.00
569;DHT22;269;48.884;9.192;2022-07-15T19:57:57;21.80;55.10
569;DHT22;269;48.884;9.192;2022-07-15T20:00:24;21.80;55.30
569;DHT22;269;48.884;9.192;2022-07-15T20:02:54;21.70;55.50
569;DHT22;269;48.884;9.192;2022-07-15T20:05:22;21.70;55.80
569;DHT22;269;48.884;9.192;2022-07-15T20:07:50;21.70;55.70
569;DHT22;269;48.884;9.192;2022-07-15T20:10:19;21.70;55.90
569;DHT22;269;48.884;9.192;2022-07-15T20:12:47;21.60;56.00
569;DHT22;269;48.884;9.192;2022-07-15T20:15:17;21.60;56.40
569;DHT22;269;48.884;9.192;2022-07-15T20:17:45;21.50;56.20
569;DHT22;269;48.884;9.192;2022-07-15T20:20:12;21.50;56.50
569;DHT22;269;48.884;9.192;2022-07-15T20:22:41;21.40;56.70
569;DHT22;269;48.884;9.192;2022-07-15T20:25:08;21.30;57.00
569;DHT22;269;48.884;9.192;2022-07-15T20:27:35;21.30;57.40
569;DHT22;269;48.884;9.192;2022-07-15T20:30:03;21.20;57.30
569;DHT22;269;48.884;9.192;2022-07-15T20:32:32;21.20;57.20
569;DHT22;269;48.884;9.192;2022-07-15T20:34:59;21.20;57.20
569;DHT22;269;48.884;9.192;2022-07-15T20:37:26;21.20;57.30
569;DHT22;269;48.884;9.192;2022-07-15T20:39:53;21.10;57.40
569;DHT22;269;48.884;9.192;2022-07-15T20:42:20;21.10;57.70
569;DHT22;269;48.884;9.192;2022-07-15T20:44:48;21.10;57.70
569;DHT22;269;48.884;9.192;2022-07-15T20:47:16;21.00;57.60
569;DHT22;269;48.884;9.192;2022-07-15T20:49:44;21.10;57.90
569;DHT22;269;48.884;9.192;2022-07-15T20:52:11;21.00;57.90
569;DHT22;269;48.884;9.192;2022-07-15T20:54:39;21.00;57.90
569;DHT22;269;48.884;9.192;2022-07-15T20:57:06;21.00;58.20
569;DHT22;269;48.884;9.192;2022-07-15T20:59:33;21.00;58.10
569;DHT22;269;48.884;9.192;2022-07-15T21:02:00;21.10;58.30
569;DHT22;269;48.884;9.192;2022-07-15T21:04:28;20.90;58.20
569;DHT22;269;48.884;9.192;2022-07-15T21:06:56;20.90;58.40
569;DHT22;269;48.884;9.192;2022-07-15T21:09:23;20.90;58.60
569;DHT22;269;48.884;9.192;2022-07-15T21:11:50;20.90;58.50
569;DHT22;269;48.884;9.192;2022-07-15T21:14:18;20.80;58.90
569;DHT22;269;48.884;9.192;2022-07-15T21:16:45;20.80;58.90
569;DHT22;269;48.884;9.192;2022-07-15T21:19:12;20.80;59.00
569;DHT22;269;48.884;9.192;2022-07-15T21:21:39;20.80;59.10
569;DHT22;269;48.884;9.192;2022-07-15T21:24:08;20.80;59.10
569;DHT22;269;48.884;9.192;2022-07-15T21:26:49;20.70;59.10
569;DHT22;269;48.884;9.192;2022-07-15T21:29:16;20.60;59.20
569;DHT22;269;48.884;9.192;2022-07-15T21:31:43;20.60;59.50
569;DHT22;269;48.884;9.192;2022-07-15T21:34:10;20.50;59.80
569;DHT22;269;48.884;9.192;2022-07-15T21:36:37;20.50;60.00
569;DHT22;269;48.884;9.192;2022-07-15T21:39:04;20.40;60.10
569;DHT22;269;48.884;9.192;2022-07-15T21:41:32;20.40;60.20
569;DHT22;269;48.884;9.192;2022-07-15T21:44:00;20.30;60.50
569;DHT22;269;48.884;9.192;2022-07-15T21:46:27;20.30;60.70
569;DHT22;269;48.884;9.192;2022-07-15T21:48:54;20.20;61.10
569;DHT22;269;48.884;9.192;2022-07-15T21:51:21;20.20;61.30
569;DHT22;269;48.884;9.192;2022-07-15T21:53:48;20.20;61.40
569;DHT22;269;48.884;9.192;2022-07-15T21:56:15;20.20;61.30
569;DHT22;269;48.884;9.192;2022-07-15T21:58:44;20.20;61.40
569;DHT22;269;48.884;9.192;2022-07-15T22:01:11;20.20;61.60
569;DHT22;269;48.884;9.192;2022-07-15T22:03:38;20.10;61.50
569;DHT22;269;48.884;9.192;2022-07-15T22:06:07;20.10;61.40
569;DHT22;269;48.884;9.192;2022-07-15T22:08:35;20.10;62.20
569;DHT22;269;48.884;9.192;2022-07-15T22:11:02;20.00;62.20
569;DHT22;269;48.884;9.192;2022-07-15T22:13:29;20.00;62.50
569;DHT22;269;48.884;9.192;2022-07-15T22:15:57;20.00;63.00
569;DHT22;269;48.884;9.192;2022-07-15T22:18:24;19.90;62.90
569;DHT22;269;48.884;9.192;2022-07-15T22:20:51;19.90;63.10
569;DHT22;269;48.884;9.192;2022-07-15T22:23:19;19.90;63.20
569;DHT22;269;48.884;9.192;2022-07-15T22:25:46;19.90;63.40
569;DHT22;269;48.884;9.192;2022-07-15T22:28:13;19.80;63.60
569;DHT22;269;48.884;9.192;2022-07-15T22:30:41;19.80;63.90
569;DHT22;269;48.884;9.192;2022-07-15T22:33:10;19.80;64.00
569;DHT22;269;48.884;9.192;2022-07-15T22:35:37;19.80;64.60
569;DHT22;269;48.884;9.192;2022-07-15T22:38:04;19.70;64.40
569;DHT22;269;48.884;9.192;2022-07-15T22:40:31;19.70;64.80
569;DHT22;269;48.884;9.192;2022-07-15T22:42:58;19.60;64.40
569;DHT22;269;48.884;9.192;2022-07-15T22:45:25;19.60;65.40
569;DHT22;269;48.884;9.192;2022-07-15T22:47:53;19.60;64.70
569;DHT22;269;48.884;9.192;2022-07-15T22:50:21;19.50;65.00
569;DHT22;269;48.884;9.192;2022-07-15T22:52:48;19.50;65.20
569;DHT22;269;48.884;9.192;2022-07-15T22:55:16;19.40;65.00
569;DHT22;269;48.884;9.192;2022-07-15T22:57:43;19.40;65.60
569;DHT22;269;48.884;9.192;2022-07-15T23:00:11;19.40;66.30
569;DHT22;269;48.884;9.192;2022-07-15T23:02:39;19.30;66.20
569;DHT22;269;48.884;9.192;2022-07-15T23:05:07;19.30;66.30
569;DHT22;269;48.884;9.192;2022-07-15T23:07:35;19.20;66.10
569;DHT22;269;48.884;9.192;2022-07-15T23:10:03;19.20;66.20
569;DHT22;269;48.884;9.192;2022-07-15T23:12:31;19.10;66.00
569;DHT22;269;48.884;9.192;2022-07-15T23:14:58;19.10;66.50
569;DHT22;269;48.884;9.192;2022-07-15T23:17:25;19.10;66.20
569;DHT22;269;48.884;9.192;2022-07-15T23:19:52;19.10;66.60
569;DHT22;269;48.884;9.192;2022-07-15T23:22:19;19.00;66.30
569;DHT22;269;48.884;9.192;2022-07-15T23:24:49;19.00;66.50
569;DHT22;269;48.884;9.192;2022-07-15T23:27:16;19.00;66.50
569;DHT22;269;48.884;9.192;2022-07-15T23:29:44;19.00;66.60
569;DHT22;269;48.884;9.192;2022-07-15T23:32:11;19.00;66.60
569;DHT22;269;48.884;9.192;2022-07-15T23:34:38;18.90;66.90
569;DHT22;269;48.884;9.192;2022-07-15T23:37:05;18.80;67.00
569;DHT22;269;48.884;9.192;2022-07-15T23:39:32;18.80;67.50
569;DHT22;269;48.884;9.192;2022-07-15T23:42:00;18.80;67.60
569;DHT22;269;48.884;9.192;2022-07-15T23:44:27;18.70;67.70
569;DHT22;269;48.884;9.192;2022-07-15T23:46:54;18.70;67.80
569;DHT22;269;48.884;9.192;2022-07-15T23:49:21;18.70;68.10
569;DHT22;269;48.884;9.192;2022-07-15T23:51:48;18.70;68.20
569;DHT22;269;48.884;9.192;2022-07-15T23:54:15;18.70;68.30
569;DHT22;269;48.884;9.192;2022-07-15T23:56:42;18.70;68.40
569;DHT22;269;48.884;9.192;2022-07-15T23:59:11;18.70;68.50
